Time;durP1;ratioP1;P1;durP2;ratioP2;P2;SDS_P1;SDS_P2;PMS_P1;PMS_P2;Temp;Humidity;BMP_temperature;BMP_pressure;BME280_temperature;BME280_humidity;BME280_pressure;Samples;Min_cycle;Max_cycle;Signal;HPM_P1;HPM_P2
2021/12/17 00:03:08;;;;;;;;;;;9.00;99.90;;;;;;5073465;28;19949;-62
2021/12/17 00:05:15;;;;;;;;;;;9.00;99.90;;;;;;5071420;28;19914;-62
2021/12/17 00:07:40;;;;;;;;;;;9.00;99.90;;;;;;5074919;28;20049;-63
2021/12/17 00:10:08;;;;;;;;;;;8.80;99.90;;;;;;5073166;28;19996;-62
2021/12/17 00:12:33;;;;;;;;;;;8.70;99.90;;;;;;5074444;28;19915;-62
2021/12/17 00:14:59;;;;;;;;;;;8.80;99.90;;;;;;5074338;28;19919;-63
2021/12/17 00:17:29;;;;;;;;;;;8.90;99.90;;;;;;5072710;28;19923;-61
2021/12/17 00:49:53;;;;;;;;;;;8.70;99.90;;;;;;5074399;28;20017;-62
2021/12/17 00:52:19;;;;;;;;;;;8.70;99.90;;;;;;5071402;28;20333;-62
2021/12/17 00:54:45;;;;;;;;;;;8.70;99.90;;;;;;5073180;28;19920;-62
2021/12/17 00:57:13;;;;;;;;;;;8.70;99.90;;;;;;5070686;28;19923;-62
2021/12/17 00:59:43;;;;;;;;;;;8.70;99.90;;;;;;5072635;28;19974;-62
2021/12/17 01:02:10;;;;;;;;;;;8.70;99.90;;;;;;5072356;28;19916;-62
2021/12/17 01:04:38;;;;;;;;;;;8.60;99.90;;;;;;5071918;28;20348;-62
2021/12/17 01:07:04;;;;;;;;;;;8.50;99.90;;;;;;5071912;28;20416;-63
2021/12/17 01:09:30;;;;;;;;;;;8.60;99.90;;;;;;5073069;28;20402;-62
2021/12/17 01:11:56;;;;;;;;;;;8.60;99.90;;;;;;5072362;28;19927;-62
2021/12/17 01:14:22;;;;;;;;;;;8.70;99.90;;;;;;5072971;28;20401;-62
2021/12/17 01:16:50;;;;;;;;;;;8.70;99.90;;;;;;5069322;28;19916;-62
2021/12/17 01:19:30;;;;;;;;;;;8.90;99.90;;;;;;5072765;28;19916;-62
2021/12/17 01:22:13;;;;;;;;;;;8.80;99.90;;;;;;5074839;28;19916;-62
2021/12/17 01:24:48;;;;;;;;;;;8.70;99.90;;;;;;5071685;28;19939;-63
2021/12/17 01:35:30;;;;;;;;;;;8.70;99.90;;;;;;5072469;28;19919;-62
2021/12/17 01:40:58;;;;;;;;;;;8.60;99.90;;;;;;5071574;28;20020;-62
2021/12/17 01:43:22;;;;;;;;;;;8.60;99.90;;;;;;5071293;28;19992;-62
2021/12/17 01:45:47;;;;;;;;;;;8.50;99.90;;;;;;5072573;28;19912;-62
2021/12/17 01:48:17;;;;;;;;;;;8.50;99.90;;;;;;5071999;28;20356;-62
2021/12/17 01:56:36;;;;;;;;;;;8.50;99.90;;;;;;5071113;28;19961;-62
2021/12/17 01:59:22;;;;;;;;;;;8.50;99.90;;;;;;5069805;28;19913;-62
2021/12/17 02:01:48;;;;;;;;;;;8.60;99.90;;;;;;5071111;28;20572;-62
2021/12/17 02:04:13;;;;;;;;;;;8.60;99.90;;;;;;5071479;28;19916;-62
2021/12/17 02:06:39;;;;;;;;;;;8.80;99.90;;;;;;5070026;28;19995;-63
2021/12/17 02:09:29;;;;;;;;;;;8.80;99.90;;;;;;5070778;28;19916;-63
2021/12/17 02:31:57;;;;;;;;;;;8.70;99.90;;;;;;5071205;28;19962;-62
2021/12/17 02:37:10;;;;;;;;;;;8.60;99.90;;;;;;5070740;28;19967;-62
2021/12/17 02:47:37;;;;;;;;;;;8.60;99.90;;;;;;5069985;28;19927;-63
2021/12/17 02:50:03;;;;;;;;;;;8.70;99.90;;;;;;5070861;28;20677;-62
2021/12/17 02:52:30;;;;;;;;;;;8.70;99.90;;;;;;5072569;28;20034;-63
2021/12/17 02:54:57;;;;;;;;;;;8.60;99.90;;;;;;5070944;28;20032;-62
2021/12/17 02:57:23;;;;;;;;;;;8.60;99.90;;;;;;5072669;28;20014;-62
2021/12/17 02:59:49;;;;;;;;;;;8.50;99.90;;;;;;5070234;28;19926;-63
2021/12/17 03:02:15;;;;;;;;;;;8.40;99.90;;;;;;5069538;28;19920;-62
2021/12/17 03:04:41;;;;;;;;;;;8.50;99.90;;;;;;5070016;28;19912;-62
2021/12/17 03:07:10;;;;;;;;;;;8.60;99.90;;;;;;5070463;28;20056;-62
2021/12/17 03:12:21;;;;;;;;;;;8.60;99.90;;;;;;5069100;28;21009;-62
2021/12/17 03:15:03;;;;;;;;;;;8.60;99.90;;;;;;5071138;28;20426;-62
2021/12/17 03:25:43;;;;;;;;;;;8.50;99.90;;;;;;5072226;28;19958;-62
2021/12/17 03:28:08;;;;;;;;;;;8.50;99.90;;;;;;5072328;28;19948;-63
2021/12/17 03:30:34;;;;;;;;;;;8.50;99.90;;;;;;5075791;28;19908;-62
2021/12/17 03:32:59;;;;;;;;;;;8.50;99.90;;;;;;5072081;28;19997;-62
2021/12/17 03:35:24;;;;;;;;;;;8.50;99.90;;;;;;5074542;28;19977;-62
2021/12/17 03:37:50;;;;;;;;;;;8.50;99.90;;;;;;5070557;28;19920;-62
2021/12/17 03:40:17;;;;;;;;;;;8.50;99.90;;;;;;5074494;28;20045;-62
2021/12/17 03:42:47;;;;;;;;;;;8.40;99.90;;;;;;5074219;28;19912;-62
2021/12/17 03:45:14;;;;;;;;;;;8.50;99.90;;;;;;5074542;28;20314;-62
2021/12/17 03:47:39;;;;;;;;;;;8.40;99.90;;;;;;5074073;28;19912;-62
2021/12/17 03:50:05;;;;;;;;;;;8.50;99.90;;;;;;5072915;28;19923;-62
2021/12/17 03:52:30;;;;;;;;;;;8.50;99.90;;;;;;5074734;28;19924;-61
2021/12/17 03:54:56;;;;;;;;;;;8.60;99.90;;;;;;5074317;28;20015;-62
2021/12/17 03:57:22;;;;;;;;;;;8.50;99.90;;;;;;5075170;28;19920;-62
2021/12/17 03:59:48;;;;;;;;;;;8.50;99.90;;;;;;5072619;28;19924;-62
2021/12/17 04:02:14;;;;;;;;;;;8.50;99.90;;;;;;5072271;28;19920;-62
2021/12/17 04:04:39;;;;;;;;;;;8.50;99.90;;;;;;5074413;28;19913;-62
2021/12/17 04:07:05;;;;;;;;;;;8.50;99.90;;;;;;5073505;28;19961;-62
2021/12/17 04:09:31;;;;;;;;;;;8.50;99.90;;;;;;5074557;28;20422;-63
2021/12/17 04:11:57;;;;;;;;;;;8.60;99.90;;;;;;5073642;28;19923;-62
2021/12/17 04:14:32;;;;;;;;;;;8.50;99.90;;;;;;5074182;28;20304;-63
2021/12/17 04:17:03;;;;;;;;;;;8.50;99.90;;;;;;5071518;28;19912;-62
2021/12/17 04:19:29;;;;;;;;;;;8.70;99.90;;;;;;5074549;28;19908;-62
2021/12/17 04:21:54;;;;;;;;;;;8.80;99.90;;;;;;5072736;28;19912;-62
2021/12/17 04:24:20;;;;;;;;;;;8.60;99.90;;;;;;5073604;28;19916;-62
2021/12/17 04:26:45;;;;;;;;;;;8.50;99.90;;;;;;5055051;28;19923;-63
2021/12/17 04:29:11;;;;;;;;;;;8.50;99.90;;;;;;5071610;28;19940;-63
2021/12/17 04:31:37;;;;;;;;;;;8.40;99.90;;;;;;5072881;28;19919;-62
2021/12/17 04:34:02;;;;;;;;;;;8.40;99.90;;;;;;5074939;28;19916;-62
2021/12/17 04:36:31;;;;;;;;;;;8.30;99.90;;;;;;5073609;28;19920;-62
2021/12/17 04:38:58;;;;;;;;;;;8.40;99.90;;;;;;5074747;28;19916;-62
2021/12/17 04:41:43;;;;;;;;;;;8.20;99.90;;;;;;5071870;28;19973;-61
2021/12/17 04:44:16;;;;;;;;;;;8.20;99.90;;;;;;5072635;28;19920;-62
2021/12/17 04:57:38;;;;;;;;;;;8.30;99.90;;;;;;5073241;28;19919;-62
2021/12/17 05:00:05;;;;;;;;;;;8.20;99.90;;;;;;5073335;28;19915;-62
2021/12/17 05:02:33;;;;;;;;;;;8.40;99.90;;;;;;5071879;28;19912;-62
2021/12/17 05:05:05;;;;;;;;;;;8.30;99.90;;;;;;5073099;28;20062;-62
2021/12/17 05:07:31;;;;;;;;;;;8.20;99.90;;;;;;5073160;28;20053;-62
2021/12/17 05:18:24;;;;;;;;;;;8.40;99.90;;;;;;5072962;28;19919;-62
2021/12/17 05:20:52;;;;;;;;;;;8.40;99.90;;;;;;5073202;28;20327;-61
2021/12/17 05:23:24;;;;;;;;;;;8.20;99.90;;;;;;5072131;28;20371;-62
2021/12/17 05:25:50;;;;;;;;;;;8.20;99.90;;;;;;5073027;28;19977;-62
2021/12/17 05:28:16;;;;;;;;;;;8.30;99.90;;;;;;5071005;28;19924;-61
2021/12/17 05:30:46;;;;;;;;;;;8.40;99.90;;;;;;5072413;28;20423;-62
2021/12/17 05:33:12;;;;;;;;;;;8.30;99.90;;;;;;5071876;28;19912;-62
2021/12/17 05:35:37;;;;;;;;;;;8.20;99.90;;;;;;5073236;28;20371;-62
2021/12/17 05:38:03;;;;;;;;;;;8.20;99.90;;;;;;5066884;28;19918;-62
2021/12/17 05:40:28;;;;;;;;;;;8.30;99.90;;;;;;5072759;28;19912;-63
2021/12/17 05:42:58;;;;;;;;;;;8.30;99.90;;;;;;5073216;28;19919;-61
2021/12/17 05:45:35;;;;;;;;;;;8.20;99.90;;;;;;5073016;28;19916;-63
2021/12/17 05:48:05;;;;;;;;;;;8.30;99.90;;;;;;5071688;28;20339;-62
2021/12/17 05:50:31;;;;;;;;;;;8.20;99.90;;;;;;5072491;28;20504;-62
2021/12/17 05:52:56;;;;;;;;;;;8.30;99.90;;;;;;5074266;28;20017;-62
2021/12/17 05:55:22;;;;;;;;;;;8.40;99.90;;;;;;5070234;28;19927;-62
2021/12/17 05:57:47;;;;;;;;;;;8.40;99.90;;;;;;5071646;28;19912;-62
2021/12/17 06:00:13;;;;;;;;;;;8.40;99.90;;;;;;5071618;28;20077;-62
2021/12/17 06:02:39;;;;;;;;;;;8.50;99.90;;;;;;5073071;28;20494;-62
2021/12/17 06:05:04;;;;;;;;;;;8.50;99.90;;;;;;5071150;28;20089;-62
2021/12/17 06:07:30;;;;;;;;;;;8.30;99.90;;;;;;5071815;28;20297;-62
2021/12/17 06:10:01;;;;;;;;;;;8.30;99.90;;;;;;5072770;28;19923;-62
2021/12/17 06:12:27;;;;;;;;;;;8.20;99.90;;;;;;5070918;28;20011;-62
2021/12/17 06:14:53;;;;;;;;;;;8.20;99.90;;;;;;5071359;28;20729;-63
2021/12/17 06:17:19;;;;;;;;;;;8.40;99.90;;;;;;5070182;28;19916;-62
2021/12/17 06:19:44;;;;;;;;;;;8.30;99.90;;;;;;5072618;28;20296;-62
2021/12/17 06:22:10;;;;;;;;;;;8.20;99.90;;;;;;5072808;28;20379;-62
2021/12/17 06:24:35;;;;;;;;;;;8.20;99.90;;;;;;5071209;28;19951;-62
2021/12/17 06:27:01;;;;;;;;;;;8.20;99.90;;;;;;5068733;28;19997;-62
2021/12/17 06:29:26;;;;;;;;;;;8.20;99.90;;;;;;5067833;28;19920;-62
2021/12/17 06:31:52;;;;;;;;;;;8.30;99.90;;;;;;5070213;28;19916;-62
2021/12/17 06:34:17;;;;;;;;;;;8.30;99.90;;;;;;5070821;28;20232;-62
2021/12/17 06:36:43;;;;;;;;;;;8.30;99.90;;;;;;5071732;28;19957;-62
2021/12/17 06:39:08;;;;;;;;;;;8.30;99.90;;;;;;5066975;28;20423;-62
2021/12/17 06:41:35;;;;;;;;;;;8.20;99.90;;;;;;5070863;28;20011;-62
2021/12/17 06:44:01;;;;;;;;;;;8.20;99.90;;;;;;5071350;28;20403;-62
2021/12/17 06:49:31;;;;;;;;;;;8.10;99.90;;;;;;5070771;28;19927;-62
2021/12/17 07:06:03;;;;;;;;;;;8.20;99.90;;;;;;5076007;28;19927;-62
2021/12/17 07:22:16;;;;;;;;;;;8.10;99.90;;;;;;5078157;28;19962;-63
2021/12/17 07:39:52;;;;;;;;;;;8.10;99.90;;;;;;5076073;28;20397;-64
2021/12/17 07:42:18;;;;;;;;;;;8.20;99.90;;;;;;5074620;28;19912;-63
2021/12/17 07:44:43;;;;;;;;;;;8.30;99.90;;;;;;5076281;28;19963;-63
2021/12/17 07:47:10;;;;;;;;;;;8.30;99.90;;;;;;5076360;28;19924;-63
2021/12/17 07:49:35;;;;;;;;;;;8.10;99.90;;;;;;5077344;28;19935;-63
2021/12/17 07:52:01;;;;;;;;;;;8.20;99.90;;;;;;5077082;28;19924;-63
2021/12/17 07:54:26;;;;;;;;;;;8.00;99.90;;;;;;5074501;28;19978;-63
2021/12/17 07:56:52;;;;;;;;;;;8.10;99.90;;;;;;5073841;28;20379;-63
2021/12/17 07:59:17;;;;;;;;;;;8.10;99.90;;;;;;5076435;28;19948;-64
2021/12/17 08:01:43;;;;;;;;;;;8.10;99.90;;;;;;5075133;28;19923;-63
2021/12/17 08:04:10;;;;;;;;;;;8.20;99.90;;;;;;5075187;28;19926;-64
2021/12/17 08:06:36;;;;;;;;;;;8.10;99.90;;;;;;5074067;28;20406;-63
2021/12/17 08:09:02;;;;;;;;;;;8.10;99.90;;;;;;5072406;28;19927;-63
2021/12/17 08:11:27;;;;;;;;;;;8.10;99.90;;;;;;5071571;28;19920;-64
2021/12/17 08:13:55;;;;;;;;;;;8.20;99.90;;;;;;5071916;28;19920;-63
2021/12/17 08:16:34;;;;;;;;;;;8.10;99.90;;;;;;5069490;28;19920;-66
2021/12/17 08:31:57;;;;;;;;;;;8.00;99.90;;;;;;5071160;28;20856;-63
2021/12/17 08:34:23;;;;;;;;;;;8.00;99.90;;;;;;5069916;28;20011;-64
2021/12/17 08:36:49;;;;;;;;;;;8.00;99.90;;;;;;5071221;28;19942;-63
2021/12/17 08:39:14;;;;;;;;;;;8.00;99.90;;;;;;5066041;28;20352;-64
2021/12/17 08:41:41;;;;;;;;;;;8.10;99.90;;;;;;5067808;28;19970;-63
2021/12/17 08:44:07;;;;;;;;;;;8.20;99.90;;;;;;5069718;28;19912;-63
2021/12/17 08:46:33;;;;;;;;;;;8.20;99.90;;;;;;5068605;28;20958;-63
2021/12/17 08:48:58;;;;;;;;;;;8.10;99.90;;;;;;5071150;28;19912;-63
2021/12/17 08:51:24;;;;;;;;;;;8.20;99.90;;;;;;5072201;28;19916;-63
2021/12/17 08:53:49;;;;;;;;;;;8.10;99.90;;;;;;5071210;28;19916;-64
2021/12/17 08:56:18;;;;;;;;;;;8.30;99.90;;;;;;5069826;28;20480;-63
2021/12/17 08:58:45;;;;;;;;;;;8.30;99.90;;;;;;5071116;28;20283;-63
2021/12/17 09:01:10;;;;;;;;;;;8.40;99.90;;;;;;5070416;28;19931;-63
2021/12/17 09:03:36;;;;;;;;;;;8.40;99.90;;;;;;5072570;28;19915;-63
2021/12/17 09:06:02;;;;;;;;;;;8.50;99.90;;;;;;5069455;28;19923;-63
2021/12/17 09:08:27;;;;;;;;;;;8.30;99.90;;;;;;5070702;28;19981;-63
2021/12/17 09:10:55;;;;;;;;;;;8.30;99.90;;;;;;5071726;28;19912;-63
2021/12/17 09:13:27;;;;;;;;;;;8.40;99.90;;;;;;5069781;28;19961;-63
2021/12/17 09:15:56;;;;;;;;;;;8.40;99.90;;;;;;5070626;28;19924;-64
2021/12/17 09:18:22;;;;;;;;;;;8.30;99.90;;;;;;5070152;28;20958;-63
2021/12/17 09:20:48;;;;;;;;;;;8.30;99.90;;;;;;5072669;28;19959;-63
2021/12/17 09:23:13;;;;;;;;;;;8.40;99.90;;;;;;5070009;28;19920;-63
2021/12/17 09:25:39;;;;;;;;;;;8.40;99.90;;;;;;5066767;28;19923;-63
2021/12/17 09:28:05;;;;;;;;;;;8.60;99.90;;;;;;5070409;28;20607;-63
2021/12/17 09:30:31;;;;;;;;;;;8.50;99.90;;;;;;5069953;28;19912;-64
2021/12/17 09:32:56;;;;;;;;;;;8.60;99.90;;;;;;5068994;28;19916;-63
2021/12/17 09:35:24;;;;;;;;;;;8.50;99.90;;;;;;5071580;28;19961;-63
2021/12/17 09:37:50;;;;;;;;;;;8.50;99.90;;;;;;5069857;28;20413;-64
2021/12/17 09:40:17;;;;;;;;;;;8.60;99.90;;;;;;5071514;28;19977;-63
2021/12/17 09:42:44;;;;;;;;;;;8.60;99.90;;;;;;5068290;28;19919;-63
2021/12/17 09:45:11;;;;;;;;;;;8.80;99.90;;;;;;5070804;28;19920;-64
2021/12/17 09:47:36;;;;;;;;;;;8.60;99.90;;;;;;5068958;28;19920;-63
2021/12/17 09:50:02;;;;;;;;;;;8.60;99.90;;;;;;5070802;28;19999;-63
2021/12/17 09:52:28;;;;;;;;;;;8.50;99.90;;;;;;5071918;28;19935;-63
2021/12/17 09:54:57;;;;;;;;;;;8.40;99.90;;;;;;5070682;28;20281;-63
2021/12/17 09:57:22;;;;;;;;;;;8.50;99.90;;;;;;5066959;28;19973;-63
2021/12/17 09:59:48;;;;;;;;;;;8.50;99.90;;;;;;5071811;28;20282;-64
2021/12/17 10:02:14;;;;;;;;;;;8.60;99.90;;;;;;5070925;28;20108;-63
2021/12/17 10:04:40;;;;;;;;;;;8.50;99.90;;;;;;5068094;28;19951;-64
2021/12/17 10:07:22;;;;;;;;;;;8.50;99.90;;;;;;5069213;28;19923;-64
2021/12/17 10:09:48;;;;;;;;;;;8.60;99.90;;;;;;5070735;28;20403;-64
2021/12/17 10:12:16;;;;;;;;;;;8.50;99.90;;;;;;5066395;28;19970;-63
2021/12/17 10:14:42;;;;;;;;;;;8.60;99.90;;;;;;5065049;28;21066;-64
2021/12/17 10:17:09;;;;;;;;;;;8.60;99.90;;;;;;5066174;28;19916;-63
2021/12/17 10:19:45;;;;;;;;;;;8.60;99.90;;;;;;5068524;28;19924;-63
2021/12/17 10:22:12;;;;;;;;;;;8.50;99.90;;;;;;5070644;28;19922;-63
2021/12/17 10:24:41;;;;;;;;;;;8.60;99.90;;;;;;5068868;28;20332;-63
2021/12/17 10:27:25;;;;;;;;;;;8.70;99.90;;;;;;5068337;28;19920;-63
2021/12/17 10:29:51;;;;;;;;;;;8.80;99.90;;;;;;5069411;28;19927;-63
2021/12/17 10:32:17;;;;;;;;;;;8.80;99.90;;;;;;5065240;28;19912;-63
2021/12/17 10:34:58;;;;;;;;;;;8.80;99.90;;;;;;5068635;28;20391;-63
2021/12/17 10:37:38;;;;;;;;;;;8.70;99.90;;;;;;5067459;28;19912;-64
2021/12/17 10:40:16;;;;;;;;;;;8.60;99.90;;;;;;5067066;28;19927;-63
2021/12/17 10:42:49;;;;;;;;;;;8.60;99.90;;;;;;5068839;28;19949;-63
2021/12/17 10:45:23;;;;;;;;;;;8.60;99.90;;;;;;5070094;28;19986;-63
2021/12/17 10:48:01;;;;;;;;;;;8.70;99.90;;;;;;5066914;28;19938;-63
2021/12/17 10:50:27;;;;;;;;;;;8.70;99.90;;;;;;5068998;28;19912;-63
2021/12/17 10:52:56;;;;;;;;;;;8.60;99.90;;;;;;5069352;28;19985;-63
2021/12/17 10:55:23;;;;;;;;;;;8.60;99.90;;;;;;5069035;28;22213;-62
2021/12/17 10:57:49;;;;;;;;;;;8.80;99.90;;;;;;5065706;28;19912;-63
2021/12/17 11:00:16;;;;;;;;;;;8.80;99.90;;;;;;5068034;28;20279;-63
2021/12/17 11:02:48;;;;;;;;;;;8.80;99.90;;;;;;5067826;28;19955;-63
2021/12/17 11:05:14;;;;;;;;;;;8.70;99.90;;;;;;5066188;28;19916;-63
2021/12/17 11:07:43;;;;;;;;;;;8.70;99.90;;;;;;5065477;28;19989;-63
2021/12/17 11:10:09;;;;;;;;;;;8.80;99.90;;;;;;5067002;28;20500;-64
2021/12/17 11:12:35;;;;;;;;;;;8.70;99.90;;;;;;5063962;28;19934;-63
2021/12/17 11:15:06;;;;;;;;;;;8.80;99.90;;;;;;5067933;28;20394;-63
2021/12/17 11:17:32;;;;;;;;;;;8.80;99.90;;;;;;5067271;28;20367;-63
2021/12/17 11:19:59;;;;;;;;;;;8.80;99.90;;;;;;5067420;28;20026;-63
2021/12/17 11:22:26;;;;;;;;;;;8.70;99.90;;;;;;5066106;28;19955;-62
2021/12/17 11:24:52;;;;;;;;;;;8.70;99.90;;;;;;5063867;28;20443;-62
2021/12/17 11:27:17;;;;;;;;;;;8.70;99.90;;;;;;5067695;28;20003;-63
2021/12/17 11:29:43;;;;;;;;;;;8.70;99.90;;;;;;5068507;28;19920;-63
2021/12/17 11:32:09;;;;;;;;;;;8.70;99.90;;;;;;5061222;28;20235;-63
2021/12/17 11:34:34;;;;;;;;;;;8.80;99.90;;;;;;5067219;28;19927;-63
2021/12/17 11:37:01;;;;;;;;;;;8.80;99.90;;;;;;5068079;28;19917;-63
2021/12/17 11:39:30;;;;;;;;;;;8.70;99.90;;;;;;5064326;28;19919;-63
2021/12/17 11:42:24;;;;;;;;;;;8.60;99.90;;;;;;5068136;28;19916;-63
2021/12/17 11:44:54;;;;;;;;;;;8.70;99.90;;;;;;5064321;28;20019;-62
2021/12/17 11:47:20;;;;;;;;;;;8.80;99.90;;;;;;5067209;28;20067;-62
2021/12/17 11:49:49;;;;;;;;;;;8.60;99.90;;;;;;5076078;28;20324;-62
2021/12/17 11:52:16;;;;;;;;;;;8.70;99.90;;;;;;5071621;28;19920;-63
2021/12/17 11:54:41;;;;;;;;;;;8.80;99.90;;;;;;5074595;28;19921;-63
2021/12/17 11:57:08;;;;;;;;;;;8.70;99.90;;;;;;5067731;28;19970;-63
2021/12/17 11:59:37;;;;;;;;;;;8.80;99.90;;;;;;5067263;28;20007;-63
2021/12/17 12:02:11;;;;;;;;;;;8.90;99.90;;;;;;5067169;28;19923;-62
2021/12/17 12:04:51;;;;;;;;;;;8.80;99.90;;;;;;5069248;28;20368;-63
2021/12/17 12:07:18;;;;;;;;;;;8.90;99.90;;;;;;5067112;28;20348;-63
2021/12/17 12:10:02;;;;;;;;;;;8.90;99.90;;;;;;5068569;28;19966;-63
2021/12/17 12:12:28;;;;;;;;;;;8.90;99.90;;;;;;5069056;28;20539;-62
2021/12/17 12:14:54;;;;;;;;;;;8.90;99.90;;;;;;5068398;28;19927;-63
2021/12/17 12:17:38;;;;;;;;;;;9.00;99.90;;;;;;5068217;28;19916;-63
2021/12/17 12:20:04;;;;;;;;;;;9.10;99.90;;;;;;5068949;28;19923;-63
2021/12/17 12:22:30;;;;;;;;;;;9.00;99.90;;;;;;5072211;28;19912;-63
2021/12/17 12:25:14;;;;;;;;;;;9.10;99.90;;;;;;5069023;28;19913;-62
2021/12/17 12:27:46;;;;;;;;;;;9.10;99.90;;;;;;5066314;28;19995;-63
2021/12/17 12:30:13;;;;;;;;;;;8.90;99.90;;;;;;5066093;28;19931;-62
2021/12/17 12:32:59;;;;;;;;;;;8.90;99.90;;;;;;5066811;28;19973;-63
2021/12/17 12:35:24;;;;;;;;;;;8.90;99.90;;;;;;5069291;28;20006;-62
2021/12/17 12:38:09;;;;;;;;;;;9.20;99.90;;;;;;5072988;28;20014;-62
2021/12/17 12:40:42;;;;;;;;;;;9.20;99.90;;;;;;5068260;28;20296;-63
2021/12/17 12:43:24;;;;;;;;;;;9.00;99.90;;;;;;5068969;28;20575;-62
2021/12/17 12:45:49;;;;;;;;;;;9.00;99.90;;;;;;5069626;28;19916;-62
2021/12/17 12:48:27;;;;;;;;;;;9.10;99.90;;;;;;5072421;28;20278;-63
2021/12/17 12:51:11;;;;;;;;;;;9.00;99.90;;;;;;5070244;28;19923;-62
2021/12/17 12:53:37;;;;;;;;;;;9.10;99.90;;;;;;5071097;28;19916;-63
2021/12/17 12:56:05;;;;;;;;;;;9.10;99.90;;;;;;5066851;28;19924;-63
2021/12/17 12:58:33;;;;;;;;;;;9.00;99.90;;;;;;5070873;28;20022;-63
2021/12/17 13:01:01;;;;;;;;;;;8.90;99.90;;;;;;5064926;28;20705;-63
2021/12/17 13:03:29;;;;;;;;;;;8.90;99.90;;;;;;5068301;28;19913;-63
2021/12/17 13:05:55;;;;;;;;;;;9.00;99.90;;;;;;5067512;28;20015;-63
2021/12/17 13:08:21;;;;;;;;;;;8.90;99.90;;;;;;5068558;28;19924;-63
2021/12/17 13:10:50;;;;;;;;;;;8.90;99.90;;;;;;5069795;28;19923;-63
2021/12/17 13:13:28;;;;;;;;;;;9.00;99.90;;;;;;5069604;28;19912;-63
2021/12/17 13:23:49;;;;;;;;;;;9.00;99.90;;;;;;5070656;28;20755;-63
2021/12/17 13:26:15;;;;;;;;;;;9.00;99.90;;;;;;5068082;28;19931;-63
2021/12/17 13:29:01;;;;;;;;;;;9.00;99.90;;;;;;5071761;28;20424;-63
2021/12/17 13:31:30;;;;;;;;;;;8.90;99.90;;;;;;5067022;28;20067;-63
2021/12/17 13:33:56;;;;;;;;;;;9.10;99.90;;;;;;5067037;28;20366;-64
2021/12/17 13:36:21;;;;;;;;;;;9.10;99.90;;;;;;5068473;28;19969;-64
2021/12/17 13:38:53;;;;;;;;;;;9.20;99.90;;;;;;5068752;28;20629;-63
2021/12/17 13:41:21;;;;;;;;;;;9.10;99.90;;;;;;5070992;28;19912;-63
2021/12/17 13:43:47;;;;;;;;;;;9.20;99.90;;;;;;5071886;28;19916;-63
2021/12/17 13:46:12;;;;;;;;;;;9.20;99.90;;;;;;5065792;28;19961;-63
2021/12/17 13:48:38;;;;;;;;;;;9.20;99.90;;;;;;5066419;28;19931;-64
2021/12/17 13:51:03;;;;;;;;;;;9.20;99.90;;;;;;5070984;28;20360;-63
2021/12/17 13:53:29;;;;;;;;;;;9.10;99.90;;;;;;5069384;28;19916;-63
2021/12/17 13:55:54;;;;;;;;;;;9.20;99.90;;;;;;5064648;28;19973;-63
2021/12/17 13:58:21;;;;;;;;;;;9.20;99.90;;;;;;5069264;28;19951;-63
2021/12/17 14:00:49;;;;;;;;;;;9.20;99.90;;;;;;5065408;28;20264;-63
2021/12/17 14:03:16;;;;;;;;;;;9.10;99.90;;;;;;5071476;28;20507;-63
2021/12/17 14:05:46;;;;;;;;;;;9.10;99.90;;;;;;5067759;28;19955;-63
2021/12/17 14:08:12;;;;;;;;;;;9.00;99.90;;;;;;5071274;28;20007;-63
2021/12/17 14:10:38;;;;;;;;;;;8.90;99.90;;;;;;5066345;28;20494;-63
2021/12/17 14:13:05;;;;;;;;;;;9.00;99.90;;;;;;5082944;28;19952;-63
2021/12/17 14:15:32;;;;;;;;;;;9.20;99.90;;;;;;5066939;28;20349;-63
2021/12/17 14:18:02;;;;;;;;;;;9.10;99.90;;;;;;5069169;28;19916;-63
2021/12/17 14:20:30;;;;;;;;;;;9.00;99.90;;;;;;5064929;28;20520;-63
2021/12/17 14:22:59;;;;;;;;;;;9.00;99.90;;;;;;5069421;28;20470;-63
2021/12/17 14:25:26;;;;;;;;;;;9.10;99.90;;;;;;5067872;28;19917;-63
2021/12/17 14:27:53;;;;;;;;;;;9.20;99.90;;;;;;5066906;28;20528;-63
2021/12/17 14:30:37;;;;;;;;;;;9.00;99.90;;;;;;5068683;28;20573;-64
2021/12/17 14:33:10;;;;;;;;;;;9.00;99.90;;;;;;5067007;28;20323;-63
2021/12/17 14:35:40;;;;;;;;;;;9.20;99.90;;;;;;5067119;28;19923;-64
2021/12/17 14:38:06;;;;;;;;;;;9.20;99.90;;;;;;5067047;28;19923;-63
2021/12/17 14:40:40;;;;;;;;;;;9.30;99.90;;;;;;5063892;28;19920;-63
2021/12/17 14:43:22;;;;;;;;;;;9.30;99.90;;;;;;5064650;28;19923;-63
2021/12/17 14:45:52;;;;;;;;;;;9.20;99.90;;;;;;5065055;28;19916;-64
2021/12/17 14:48:21;;;;;;;;;;;9.20;99.90;;;;;;5063000;28;19923;-64
2021/12/17 15:02:44;;;;;;;;;;;9.30;99.90;;;;;;5065764;28;19923;-63
2021/12/17 15:05:10;;;;;;;;;;;9.00;99.90;;;;;;5063793;28;19940;-63
2021/12/17 15:07:36;;;;;;;;;;;9.00;99.90;;;;;;5067518;28;19971;-63
2021/12/17 15:10:03;;;;;;;;;;;8.90;99.90;;;;;;5066302;28;19917;-64
2021/12/17 15:14:58;;;;;;;;;;;8.80;99.90;;;;;;5064964;28;19986;-63
2021/12/17 15:17:23;;;;;;;;;;;8.90;99.90;;;;;;5066818;28;20340;-64
2021/12/17 15:19:49;;;;;;;;;;;8.90;99.90;;;;;;5067998;28;19908;-63
2021/12/17 15:22:14;;;;;;;;;;;8.90;99.90;;;;;;5069044;28;19912;-63
2021/12/17 15:24:40;;;;;;;;;;;8.90;99.90;;;;;;5069810;28;19916;-63
2021/12/17 15:27:06;;;;;;;;;;;8.80;99.90;;;;;;5073453;28;19912;-64
2021/12/17 15:29:31;;;;;;;;;;;8.80;99.90;;;;;;5071811;28;19919;-63
2021/12/17 15:31:57;;;;;;;;;;;8.80;99.90;;;;;;5067114;28;19916;-64
2021/12/17 15:34:22;;;;;;;;;;;8.80;99.90;;;;;;5068020;28;19927;-64
2021/12/17 15:36:49;;;;;;;;;;;8.80;99.90;;;;;;5069235;28;20309;-63
2021/12/17 15:39:14;;;;;;;;;;;8.70;99.90;;;;;;5072593;28;19912;-63
2021/12/17 15:41:41;;;;;;;;;;;8.60;99.90;;;;;;5071704;28;20510;-63
2021/12/17 15:44:07;;;;;;;;;;;8.70;99.90;;;;;;5067370;28;19913;-63
2021/12/17 15:46:32;;;;;;;;;;;8.80;99.90;;;;;;5072933;28;19926;-63
2021/12/17 15:48:58;;;;;;;;;;;8.80;99.90;;;;;;5074981;28;20114;-64
2021/12/17 15:51:23;;;;;;;;;;;8.80;99.90;;;;;;5073844;28;19927;-63
2021/12/17 15:53:49;;;;;;;;;;;8.80;99.90;;;;;;5073602;28;20036;-64
2021/12/17 15:56:14;;;;;;;;;;;8.80;99.90;;;;;;5070930;28;19923;-64
2021/12/17 15:58:40;;;;;;;;;;;8.80;99.90;;;;;;5068511;28;19933;-64
2021/12/17 16:01:05;;;;;;;;;;;8.70;99.90;;;;;;5068559;28;19916;-63
2021/12/17 16:03:33;;;;;;;;;;;8.70;99.90;;;;;;5069529;28;20367;-63
2021/12/17 16:06:00;;;;;;;;;;;8.90;99.90;;;;;;5072805;28;20566;-63
2021/12/17 16:08:25;;;;;;;;;;;8.70;99.90;;;;;;5069500;28;20149;-63
2021/12/17 16:20:59;;;;;;;;;;;8.60;99.90;;;;;;5070952;28;20173;-63
2021/12/17 16:21:40;;;;;;;;;;;8.60;99.90;;;;;;5071027;28;19915;-63
2021/12/17 16:24:05;;;;;;;;;;;8.60;99.90;;;;;;5071079;28;19987;-63
2021/12/17 16:26:31;;;;;;;;;;;8.70;99.90;;;;;;5067273;28;19922;-63
2021/12/17 16:28:57;;;;;;;;;;;8.70;99.90;;;;;;5068583;28;21112;-63
2021/12/17 16:31:24;;;;;;;;;;;8.60;99.90;;;;;;5070207;28;19920;-64
2021/12/17 16:33:51;;;;;;;;;;;8.70;99.90;;;;;;5068989;28;20049;-63
2021/12/17 16:36:17;;;;;;;;;;;8.60;99.90;;;;;;5070437;28;19912;-64
2021/12/17 16:38:43;;;;;;;;;;;8.70;99.90;;;;;;5069441;28;20307;-63
2021/12/17 16:41:08;;;;;;;;;;;8.70;99.90;;;;;;5070547;28;20464;-63
2021/12/17 16:43:35;;;;;;;;;;;8.70;99.90;;;;;;5071665;28;19919;-63
2021/12/17 16:48:36;;;;;;;;;;;8.70;99.90;;;;;;5072559;28;19947;-63
2021/12/17 16:51:02;;;;;;;;;;;8.60;99.90;;;;;;5071506;28;19924;-63
2021/12/17 16:53:28;;;;;;;;;;;8.60;99.90;;;;;;5066872;28;20299;-63
2021/12/17 16:55:53;;;;;;;;;;;8.50;99.90;;;;;;5067730;28;19991;-62
2021/12/17 16:58:19;;;;;;;;;;;8.40;99.90;;;;;;5068653;28;20428;-63
2021/12/17 17:00:44;;;;;;;;;;;8.60;99.90;;;;;;5069710;28;19915;-63
2021/12/17 17:03:10;;;;;;;;;;;8.70;99.90;;;;;;5071160;28;20363;-64
2021/12/17 17:05:35;;;;;;;;;;;8.60;99.90;;;;;;5070972;28;19966;-63
2021/12/17 17:08:01;;;;;;;;;;;8.70;99.90;;;;;;5070770;28;20235;-63
2021/12/17 17:10:33;;;;;;;;;;;8.70;99.90;;;;;;5071294;28;19915;-63
2021/12/17 17:13:02;;;;;;;;;;;8.60;99.90;;;;;;5071178;28;20028;-63
2021/12/17 17:15:27;;;;;;;;;;;8.60;99.90;;;;;;5067719;28;19920;-63
2021/12/17 17:17:53;;;;;;;;;;;8.60;99.90;;;;;;5069679;28;19938;-63
2021/12/17 17:20:19;;;;;;;;;;;8.80;99.90;;;;;;5068579;28;19926;-63
2021/12/17 17:22:44;;;;;;;;;;;8.70;99.90;;;;;;5072395;28;20317;-63
2021/12/17 17:25:10;;;;;;;;;;;8.70;99.90;;;;;;5066935;28;20009;-63
2021/12/17 17:27:35;;;;;;;;;;;8.60;99.90;;;;;;5066825;28;19914;-62
2021/12/17 17:30:02;;;;;;;;;;;8.70;99.90;;;;;;5068529;28;19916;-62
2021/12/17 17:32:28;;;;;;;;;;;8.60;99.90;;;;;;5067490;28;19915;-63
2021/12/17 17:34:55;;;;;;;;;;;8.70;99.90;;;;;;5070477;28;19926;-62
2021/12/17 17:37:20;;;;;;;;;;;8.60;99.90;;;;;;5064200;28;20014;-62
2021/12/17 17:39:46;;;;;;;;;;;8.60;99.90;;;;;;5067675;28;19916;-62
2021/12/17 17:42:11;;;;;;;;;;;8.40;99.90;;;;;;5067069;28;20005;-62
2021/12/17 17:44:37;;;;;;;;;;;8.20;99.90;;;;;;5067137;28;19922;-62
2021/12/17 17:47:02;;;;;;;;;;;8.20;99.90;;;;;;5070565;28;20443;-62
2021/12/17 17:49:30;;;;;;;;;;;8.40;99.90;;;;;;5067323;28;19908;-61
2021/12/17 17:51:55;;;;;;;;;;;8.40;99.90;;;;;;5068778;28;19920;-62
2021/12/17 17:54:21;;;;;;;;;;;8.40;99.90;;;;;;5069697;28;19914;-62
2021/12/17 17:56:46;;;;;;;;;;;8.70;99.90;;;;;;5069374;28;19947;-61